createdAt,value
2018-06-22T00:01:43.645Z,98932.91
2018-06-22T00:04:12.606Z,98930.55
2018-06-22T00:06:41.677Z,98927.84
2018-06-22T00:09:11.348Z,98923.47
2018-06-22T00:11:40.625Z,98927.51
2018-06-22T00:14:09.771Z,98919.11
2018-06-22T00:16:39.107Z,98921.30
2018-06-22T00:19:08.251Z,98911.86
2018-06-22T00:21:37.213Z,98913.72
2018-06-22T00:24:06.210Z,98915.06
2018-06-22T00:26:35.078Z,98916.41
2018-06-22T00:29:04.207Z,98915.06
2018-06-22T00:31:33.751Z,98910.69
2018-06-22T00:34:02.778Z,98910.17
2018-06-22T00:36:31.725Z,98903.94
2018-06-22T00:39:00.777Z,98897.70
2018-06-22T00:41:29.882Z,98899.59
2018-06-22T00:43:58.856Z,98897.70
2018-06-22T00:46:27.740Z,98899.59
2018-06-22T00:48:56.639Z,98888.80
2018-06-22T00:51:25.585Z,98889.81
2018-06-22T00:54:05.476Z,98889.30
2018-06-22T00:56:34.374Z,98888.47
2018-06-22T00:59:03.448Z,98882.23
2018-06-22T01:01:32.296Z,98870.09
2018-06-22T01:04:01.259Z,98870.09
2018-06-22T01:06:30.245Z,98877.67
2018-06-22T01:08:59.345Z,98875.48
2018-06-22T01:11:28.139Z,98873.30
2018-06-22T01:13:57.089Z,98861.48
2018-06-22T01:16:26.308Z,98854.41
2018-06-22T01:18:55.553Z,98866.55
2018-06-22T01:21:24.472Z,98858.45
2018-06-22T01:23:53.525Z,98858.45
2018-06-22T01:26:23.078Z,98857.11
2018-06-22T01:28:56.319Z,98849.35
2018-06-22T01:31:25.482Z,98844.46
2018-06-22T01:33:54.519Z,98851.20
2018-06-22T01:36:23.468Z,98837.21
2018-06-22T01:38:52.302Z,98835.02
2018-06-22T01:41:21.390Z,98832.15
2018-06-22T01:43:50.289Z,98833.50
2018-06-22T01:46:19.274Z,98825.70
2018-06-22T01:48:48.596Z,98822.70
2018-06-22T01:51:17.462Z,98825.41
2018-06-22T01:53:46.721Z,98814.08
2018-06-22T01:56:15.669Z,98813.06
2018-06-22T01:58:44.604Z,98805.48
2018-06-22T02:01:13.965Z,98812.22
2018-06-22T02:03:42.938Z,98804.13
2018-06-22T02:06:11.956Z,98808.51
2018-06-22T02:08:41.106Z,98808.17
2018-06-22T02:11:10.158Z,98803.95
2018-06-22T02:13:39.081Z,98794.17
2018-06-22T02:16:08.019Z,98793.67
2018-06-22T02:18:36.819Z,98790.97
2018-06-22T02:21:06.317Z,98803.95
2018-06-22T02:23:35.168Z,98796.87
2018-06-22T02:26:04.311Z,98799.58
2018-06-22T02:28:33.212Z,98794.17
2018-06-22T02:31:02.151Z,98801.43
2018-06-22T02:33:31.294Z,98807.66
2018-06-22T02:36:00.315Z,98809.02
2018-06-22T02:38:29.320Z,98806.31
2018-06-22T02:41:03.342Z,98809.02
2018-06-22T02:43:32.238Z,98815.76
2018-06-22T02:46:01.627Z,98815.76
2018-06-22T02:48:30.632Z,98820.82
2018-06-22T02:50:59.724Z,98808.68
2018-06-22T02:53:29.028Z,98815.97
2018-06-22T02:55:58.221Z,98824.87
2018-06-22T02:58:27.173Z,98826.75
2018-06-22T03:00:56.261Z,98824.87
2018-06-22T03:03:25.162Z,98832.15
2018-06-22T03:05:53.942Z,98837.55
2018-06-22T03:08:23.282Z,98835.35
2018-06-22T03:10:52.133Z,98848.00
2018-06-22T03:13:21.147Z,98845.64
2018-06-22T03:15:50.240Z,98840.75
2018-06-22T03:18:19.078Z,98856.09
2018-06-22T03:20:47.977Z,98853.91
2018-06-22T03:23:16.852Z,98857.95
2018-06-22T03:25:45.872Z,98867.90
2018-06-22T03:28:14.915Z,98865.20
2018-06-22T03:30:43.994Z,98871.95
2018-06-22T03:33:13.048Z,98863.85
2018-06-22T03:35:42.041Z,98883.24
2018-06-22T03:38:11.070Z,98882.94
2018-06-22T03:40:39.955Z,98897.57
2018-06-22T03:43:09.081Z,98904.31
2018-06-22T03:45:38.420Z,98911.06
2018-06-22T03:48:07.311Z,98911.06
2018-06-22T03:50:36.300Z,98921.84
2018-06-22T03:53:05.201Z,98925.05
2018-06-22T03:55:34.186Z,98934.83
2018-06-22T03:58:03.233Z,98936.18
2018-06-22T04:00:32.235Z,98939.72
2018-06-22T04:03:01.228Z,98961.64
2018-06-22T04:05:30.257Z,98968.89
2018-06-22T04:07:59.206Z,98962.98
2018-06-22T04:10:28.318Z,98976.48
2018-06-22T04:12:57.311Z,98977.28
2018-06-22T04:15:26.183Z,98985.92
2018-06-22T04:17:55.930Z,98978.64
2018-06-22T04:20:26.166Z,98983.22
2018-06-22T04:22:55.392Z,98996.71
2018-06-22T04:25:25.208Z,98999.41
2018-06-22T04:27:54.288Z,99005.11
2018-06-22T04:30:23.279Z,99040.17
2018-06-22T04:32:52.369Z,99013.70
2018-06-22T04:35:21.470Z,99023.69
2018-06-22T04:37:50.410Z,99035.63
2018-06-22T04:40:19.475Z,99035.83
2018-06-22T04:42:48.569Z,99028.55
2018-06-22T04:45:17.559Z,99022.64
2018-06-22T04:47:46.452Z,99034.78
2018-06-22T04:50:15.308Z,99042.88
2018-06-22T04:52:44.240Z,99053.87
2018-06-22T04:55:13.122Z,99054.71
2018-06-22T04:57:42.129Z,99058.42
2018-06-22T05:00:11.217Z,99058.42
2018-06-22T05:02:40.305Z,99071.91
2018-06-22T05:05:09.172Z,99062.13
2018-06-22T05:07:38.096Z,99072.41
2018-06-22T05:10:07.044Z,99077.30
2018-06-22T05:12:36.190Z,99078.31
2018-06-22T05:15:05.309Z,99096.36
2018-06-22T05:17:34.159Z,99097.91
2018-06-22T05:20:03.197Z,99087.95
2018-06-22T05:22:32.040Z,99088.80
2018-06-22T05:25:00.989Z,99099.59
2018-06-22T05:27:29.957Z,99088.97
2018-06-22T05:29:58.942Z,99109.70
2018-06-22T05:32:28.082Z,99118.84
2018-06-22T05:34:56.862Z,99111.05
2018-06-22T05:37:25.872Z,99119.69
2018-06-22T05:39:55.032Z,99126.94
2018-06-22T05:42:23.957Z,99132.83
2018-06-22T05:44:52.909Z,99144.47
2018-06-22T05:47:21.942Z,99141.43
2018-06-22T05:49:50.844Z,99160.31
2018-06-22T05:52:19.953Z,99163.02
2018-06-22T05:54:48.853Z,99158.66
2018-06-22T05:57:18.022Z,99172.65
2018-06-22T05:59:47.022Z,99184.78
2018-06-22T06:02:15.734Z,99189.34
2018-06-22T06:04:44.960Z,99191.53
2018-06-22T06:07:13.925Z,99196.42
2018-06-22T06:09:42.999Z,99206.88
2018-06-22T06:12:11.789Z,99222.05
2018-06-22T06:14:40.629Z,99230.45
2018-06-22T06:17:09.582Z,99230.14
2018-06-22T06:19:38.716Z,99224.96
2018-06-22T06:22:07.729Z,99250.69
2018-06-22T06:24:36.723Z,99252.53
2018-06-22T06:27:05.745Z,99249.02
2018-06-22T06:29:34.636Z,99275.81
2018-06-22T06:32:03.813Z,99273.11
2018-06-22T06:34:32.585Z,99278.70
2018-06-22T06:37:01.686Z,99283.05
2018-06-22T06:39:30.569Z,99298.73
2018-06-22T06:41:59.772Z,99304.98
2018-06-22T06:44:28.774Z,99300.43
2018-06-22T06:46:57.806Z,99321.16
2018-06-22T06:49:26.698Z,99332.46
2018-06-22T06:51:55.741Z,99334.66
2018-06-22T06:54:24.894Z,99341.40
2018-06-22T06:56:53.953Z,99355.39
2018-06-22T06:59:22.874Z,99375.43
2018-06-22T07:01:52.026Z,99372.42
2018-06-22T07:04:21.067Z,99379.67
2018-06-22T07:06:49.811Z,99384.56
2018-06-22T07:09:18.823Z,99392.66
2018-06-22T07:11:48.007Z,99389.11
2018-06-22T07:14:17.319Z,99400.41
2018-06-22T07:16:46.144Z,99401.76
2018-06-22T07:19:15.468Z,99409.00
2018-06-22T07:21:44.550Z,99409.00
2018-06-22T07:24:13.381Z,99423.34
2018-06-22T07:26:42.429Z,99429.23
2018-06-22T07:29:11.490Z,99428.23
2018-06-22T07:31:40.494Z,99437.67
2018-06-22T07:34:09.581Z,99440.88
2018-06-22T07:36:38.722Z,99438.67
2018-06-22T07:39:10.809Z,99450.31
2018-06-22T07:41:40.230Z,99457.25
2018-06-22T07:44:09.648Z,99452.16
2018-06-22T07:46:38.685Z,99460.27
2018-06-22T07:49:07.729Z,99467.85
2018-06-22T07:51:36.631Z,99466.19
2018-06-22T07:54:05.624Z,99472.09
2018-06-22T07:56:34.624Z,99474.78
2018-06-22T07:59:03.947Z,99495.87
2018-06-22T08:01:32.915Z,99486.42
2018-06-22T08:04:01.906Z,99497.22
2018-06-22T08:06:30.801Z,99487.23
2018-06-22T08:08:59.849Z,99510.17
2018-06-22T08:11:28.830Z,99518.61
2018-06-22T08:13:57.716Z,99532.09
2018-06-22T08:16:26.846Z,99524.19
2018-06-22T08:18:55.940Z,99529.41
2018-06-22T08:21:24.957Z,99534.30
2018-06-22T08:23:54.198Z,99534.11
2018-06-22T08:26:23.273Z,99545.94
2018-06-22T08:28:52.298Z,99555.19
2018-06-22T08:31:21.253Z,99550.14
2018-06-22T08:33:50.296Z,99557.54
2018-06-22T08:36:19.291Z,99568.68
2018-06-22T08:38:48.185Z,99567.64
2018-06-22T08:41:17.242Z,99479.82
2018-06-22T08:43:46.240Z,99570.69
2018-06-22T08:46:15.100Z,99578.28
2018-06-22T08:48:44.020Z,99590.58
2018-06-22T08:51:13.113Z,99578.44
2018-06-22T08:53:42.140Z,99590.90
2018-06-22T08:56:11.142Z,99592.09
2018-06-22T08:58:40.183Z,99596.14
2018-06-22T09:01:09.379Z,99603.20
2018-06-22T09:03:39.089Z,99608.09
2018-06-22T09:06:08.154Z,99620.59
2018-06-22T09:08:37.042Z,99611.30
2018-06-22T09:11:06.174Z,99620.23
2018-06-22T09:13:35.275Z,99626.48
2018-06-22T09:16:04.201Z,99636.77
2018-06-22T09:18:33.064Z,99636.43
2018-06-22T09:21:01.970Z,99639.12
2018-06-22T09:23:31.095Z,99645.03
2018-06-22T09:26:00.142Z,99645.88
2018-06-22T09:28:29.226Z,99658.20
2018-06-22T09:30:58.414Z,99651.95
2018-06-22T09:33:27.495Z,99666.80
2018-06-22T09:35:57.281Z,99665.45
2018-06-22T09:38:26.282Z,99679.09
2018-06-22T09:40:55.291Z,99682.33
2018-06-22T09:43:24.318Z,99688.73
2018-06-22T09:45:53.384Z,99680.63
2018-06-22T09:48:22.431Z,99700.52
2018-06-22T09:50:51.277Z,99701.06
2018-06-22T09:53:20.101Z,99706.95
2018-06-22T09:55:48.886Z,99707.95
2018-06-22T09:58:17.844Z,99711.69
2018-06-22T10:00:50.782Z,99713.04
2018-06-22T10:03:21.082Z,99718.09
2018-06-22T10:05:50.180Z,99725.33
2018-06-22T10:08:19.250Z,99724.48
2018-06-22T10:10:48.528Z,99732.08
2018-06-22T10:13:17.507Z,99733.61
2018-06-22T10:15:51.535Z,99741.86
2018-06-22T10:18:20.543Z,99744.55
2018-06-22T10:20:49.736Z,99747.44
2018-06-22T10:23:18.525Z,99760.58
2018-06-22T10:25:47.489Z,99760.26
2018-06-22T10:28:16.392Z,99772.91
2018-06-22T10:30:45.501Z,99763.61
2018-06-22T10:33:14.457Z,99764.64
2018-06-22T10:35:43.518Z,99765.64
2018-06-22T10:38:12.585Z,99761.27
2018-06-22T10:40:42.275Z,99761.27
2018-06-22T10:43:11.362Z,99763.63
2018-06-22T10:45:40.228Z,99763.80
2018-06-22T10:48:09.380Z,99766.82
2018-06-22T10:50:38.284Z,99772.05
2018-06-22T10:53:07.445Z,99782.84
2018-06-22T10:55:36.449Z,99785.19
2018-06-22T10:58:06.312Z,99789.23
2018-06-22T11:00:35.231Z,99795.98
2018-06-22T11:03:04.375Z,99795.98
2018-06-22T11:05:33.390Z,99791.62
2018-06-22T11:08:02.558Z,99790.27
2018-06-22T11:10:31.615Z,99792.61
2018-06-22T11:13:00.452Z,99787.72
2018-06-22T11:15:29.471Z,99790.27
2018-06-22T11:17:58.796Z,99786.91
2018-06-22T11:20:27.801Z,99789.91
2018-06-22T11:22:57.045Z,99790.09
2018-06-22T11:25:26.130Z,99797.69
2018-06-22T11:27:54.996Z,99800.39
2018-06-22T11:30:23.936Z,99790.59
2018-06-22T11:32:52.842Z,99791.92
2018-06-22T11:35:21.769Z,99792.41
2018-06-22T11:37:50.803Z,99802.35
2018-06-22T11:40:20.053Z,99795.11
2018-06-22T11:42:49.161Z,99784.32
2018-06-22T11:45:18.196Z,99775.06
2018-06-22T11:47:47.133Z,99780.77
2018-06-22T11:50:15.977Z,99782.66
2018-06-22T11:52:44.927Z,99785.35
2018-06-22T11:55:14.039Z,99787.70
2018-06-22T11:57:43.187Z,99787.20
2018-06-22T12:00:12.127Z,99784.81
2018-06-22T12:02:41.350Z,99779.95
2018-06-22T12:05:10.348Z,99786.17
2018-06-22T12:07:39.352Z,99789.89
2018-06-22T12:10:08.609Z,99787.20
2018-06-22T12:12:37.624Z,99789.89
2018-06-22T12:15:06.743Z,99785.50
2018-06-22T12:17:35.693Z,99783.66
2018-06-22T12:20:04.702Z,99787.70
2018-06-22T12:22:33.699Z,99788.70
2018-06-22T12:25:02.690Z,99783.84
2018-06-22T12:27:31.600Z,99791.92
2018-06-22T12:30:00.642Z,99807.58
2018-06-22T12:32:29.674Z,99811.30
2018-06-22T12:34:58.784Z,99813.16
2018-06-22T12:37:27.815Z,99817.20
2018-06-22T12:39:56.638Z,99818.55
2018-06-22T12:42:25.630Z,99812.30
2018-06-22T12:44:54.759Z,99808.76
2018-06-22T12:47:23.839Z,99816.53
2018-06-22T12:49:52.782Z,99813.33
2018-06-22T12:52:21.657Z,99815.50
2018-06-22T12:54:50.522Z,99823.59
2018-06-22T12:57:19.501Z,99825.97
2018-06-22T12:59:48.631Z,99834.56
2018-06-22T13:02:17.638Z,99835.91
2018-06-22T13:04:46.637Z,99831.02
2018-06-22T13:07:15.528Z,99831.86
2018-06-22T13:09:44.515Z,99836.91
2018-06-22T13:12:13.601Z,99838.11
2018-06-22T13:14:42.582Z,99837.75
2018-06-22T13:17:11.697Z,99840.95
2018-06-22T13:19:40.594Z,99841.30
2018-06-22T13:22:09.645Z,99840.13
2018-06-22T13:24:38.731Z,99845.84
2018-06-22T13:27:07.799Z,99852.27
2018-06-22T13:29:36.752Z,99856.63
2018-06-22T13:32:05.700Z,99854.44
2018-06-22T13:34:34.822Z,99871.47
2018-06-22T13:37:03.950Z,99881.41
2018-06-22T13:39:32.795Z,99892.20
2018-06-22T13:42:02.054Z,99891.03
2018-06-22T13:44:31.357Z,99891.03
2018-06-22T13:47:00.461Z,99885.63
2018-06-22T13:49:29.609Z,99889.67
2018-06-22T13:51:59.024Z,99888.83
2018-06-22T13:54:28.192Z,99889.33
2018-06-22T13:56:57.387Z,99884.25
2018-06-22T13:59:26.629Z,99883.08
2018-06-22T14:01:55.634Z,99888.83
2018-06-22T14:04:30.080Z,99881.73
2018-06-22T14:06:59.221Z,99884.11
2018-06-22T14:09:28.620Z,99892.02
2018-06-22T14:11:57.766Z,99898.45
2018-06-22T14:14:27.018Z,99906.19
2018-06-22T14:16:56.372Z,99906.19
2018-06-22T14:19:25.600Z,99917.97
2018-06-22T14:21:54.679Z,99940.39
2018-06-22T14:24:23.956Z,99933.33
2018-06-22T14:26:52.977Z,99931.63
2018-06-22T14:29:22.054Z,99931.63
2018-06-22T14:31:50.994Z,99929.43
2018-06-22T14:34:20.066Z,99936.17
2018-06-22T14:36:49.196Z,99926.73
2018-06-22T14:39:18.326Z,99925.88
2018-06-22T14:41:47.386Z,99937.20
2018-06-22T14:44:16.334Z,99926.91
2018-06-22T14:46:45.264Z,99932.30
2018-06-22T14:49:14.302Z,99931.95
2018-06-22T14:51:43.265Z,99938.20
2018-06-22T14:54:17.411Z,99931.45
2018-06-22T14:57:49.287Z,99937.02
2018-06-22T15:00:23.170Z,99939.86
2018-06-22T15:02:57.227Z,99956.72
2018-06-22T15:05:31.533Z,99955.86
2018-06-22T15:08:02.478Z,99953.67
2018-06-22T15:10:31.660Z,99971.19
2018-06-22T15:13:00.625Z,99966.48
2018-06-22T15:15:29.613Z,99965.48
2018-06-22T15:17:58.707Z,99971.87
2018-06-22T15:20:27.848Z,99965.13
2018-06-22T15:22:57.033Z,99974.92
2018-06-22T15:25:26.341Z,99970.52
2018-06-22T15:27:55.453Z,99975.91
2018-06-22T15:30:24.602Z,99986.70
2018-06-22T15:32:53.642Z,99990.74
2018-06-22T15:35:27.966Z,99997.48
2018-06-22T15:38:01.995Z,99996.14
2018-06-22T15:40:36.227Z,100000.18
2018-06-22T15:43:10.438Z,100011.81
2018-06-22T15:45:45.142Z,100017.35
2018-06-22T15:48:19.230Z,100015.64
2018-06-22T15:50:53.406Z,100024.09
2018-06-22T15:53:27.520Z,100028.67
2018-06-22T15:56:00.566Z,100026.79
2018-06-22T15:58:29.753Z,100033.70
2018-06-22T16:00:58.764Z,100036.23
2018-06-22T16:03:32.976Z,100036.23
2018-06-22T16:06:01.853Z,100033.53
2018-06-22T16:08:30.836Z,100036.41
2018-06-22T16:11:00.117Z,100038.92
2018-06-22T16:13:29.157Z,100041.30
2018-06-22T16:16:03.293Z,100037.75
2018-06-22T16:18:37.631Z,100042.64
2018-06-22T16:21:11.651Z,100040.09
2018-06-22T16:23:45.857Z,100044.48
2018-06-22T16:26:20.229Z,100050.87
2018-06-22T16:28:49.278Z,100059.49
2018-06-22T16:31:18.305Z,100048.85
2018-06-22T16:33:54.663Z,100042.11
2018-06-22T16:36:23.760Z,100046.16
2018-06-22T16:38:53.041Z,100050.20
2018-06-22T16:41:22.350Z,100052.57
2018-06-22T16:43:51.304Z,100050.87
2018-06-22T16:46:20.395Z,100057.11
2018-06-22T16:48:49.494Z,100061.65
2018-06-22T16:51:18.463Z,100057.25
2018-06-22T16:53:47.465Z,100062.14
2018-06-22T16:56:16.468Z,100068.89
2018-06-22T16:58:45.481Z,100063.17
2018-06-22T17:01:14.553Z,100069.55
2018-06-22T17:03:43.678Z,100069.55
2018-06-22T17:06:12.920Z,100077.29
2018-06-22T17:08:47.149Z,100081.86
2018-06-22T17:11:21.288Z,100076.61
2018-06-22T17:13:55.298Z,100078.81
2018-06-22T17:17:32.335Z,100078.98
2018-06-22T17:20:01.404Z,100082.81
2018-06-22T17:22:30.351Z,100079.79
2018-06-22T17:24:59.836Z,100089.36
2018-06-22T17:27:28.880Z,100092.59
2018-06-22T17:29:58.122Z,100093.08
2018-06-22T17:32:27.223Z,100095.28
2018-06-22T17:34:56.284Z,100101.17
2018-06-22T17:37:25.215Z,100093.08
2018-06-22T17:39:54.384Z,100096.63
2018-06-22T17:42:23.457Z,100095.28
2018-06-22T17:44:52.360Z,100093.41
2018-06-22T17:47:21.314Z,100091.56
2018-06-22T17:49:50.341Z,100093.41
2018-06-22T17:52:19.580Z,100091.73
2018-06-22T17:54:49.103Z,100095.61
2018-06-22T17:57:18.137Z,100102.84
2018-06-22T17:59:52.652Z,100094.75
2018-06-22T18:02:26.658Z,100103.37
2018-06-22T18:05:00.723Z,100101.17
2018-06-22T18:07:35.961Z,100103.02
2018-06-22T18:11:09.025Z,100110.11
2018-06-22T18:13:38.403Z,100105.35
2018-06-22T18:16:07.430Z,100105.52
2018-06-22T18:18:36.515Z,100109.21
2018-06-22T18:21:05.418Z,100112.76
2018-06-22T18:23:34.555Z,100114.95
2018-06-22T18:26:03.628Z,100112.63
2018-06-22T18:28:32.554Z,100121.34
2018-06-22T18:31:02.498Z,100123.53
2018-06-22T18:33:31.557Z,100119.98
2018-06-22T18:36:00.443Z,100124.39
2018-06-22T18:38:29.581Z,100126.23
2018-06-22T18:40:58.578Z,100128.08
2018-06-22T18:43:32.792Z,100125.73
2018-06-22T18:46:01.801Z,100128.93
2018-06-22T18:48:30.807Z,100129.95
2018-06-22T18:50:59.775Z,100129.10
2018-06-22T18:53:33.967Z,100130.45
2018-06-22T18:56:07.898Z,100135.84
2018-06-22T18:58:42.049Z,100148.11
2018-06-22T19:01:16.180Z,100143.73
2018-06-22T19:03:45.903Z,100143.38
2018-06-22T19:06:14.889Z,100143.88
2018-06-22T19:08:44.211Z,100147.91
2018-06-22T19:11:13.220Z,100151.11
2018-06-22T19:13:42.666Z,100151.64
2018-06-22T19:16:11.531Z,100153.48
2018-06-22T19:18:40.608Z,100154.47
2018-06-22T19:21:10.143Z,100162.55
2018-06-22T19:23:39.243Z,100157.66
2018-06-22T19:26:09.617Z,100157.33
2018-06-22T19:28:38.930Z,100160.88
2018-06-22T19:31:08.150Z,100161.38
2018-06-22T19:33:37.170Z,100165.91
2018-06-22T19:36:06.371Z,100160.16
2018-06-22T19:38:36.194Z,100165.06
2018-06-22T19:41:05.525Z,100163.88
2018-06-22T19:43:39.899Z,100166.08
2018-06-22T19:46:14.065Z,100169.77
2018-06-22T19:48:48.541Z,100171.61
2018-06-22T19:51:22.619Z,100168.91
2018-06-22T19:54:01.269Z,100172.10
2018-06-22T19:56:30.334Z,100173.97
2018-06-22T19:58:59.596Z,100165.36
2018-06-22T20:01:28.752Z,100164.02
2018-06-22T20:03:59.125Z,100173.97
2018-06-22T20:06:28.354Z,100172.10
2018-06-22T20:08:57.511Z,100179.69
2018-06-22T20:11:26.368Z,100184.09
2018-06-22T20:13:55.331Z,100184.09
2018-06-22T20:16:24.267Z,100179.55
2018-06-22T20:18:53.217Z,100184.42
2018-06-22T20:21:22.235Z,100181.39
2018-06-22T20:23:51.294Z,100186.30
2018-06-22T20:26:20.318Z,100196.05
2018-06-22T20:28:49.330Z,100192.86
2018-06-22T20:31:23.270Z,100197.89
2018-06-22T20:33:52.236Z,100189.81
2018-06-22T20:36:26.251Z,100201.44
2018-06-22T20:39:00.398Z,100202.80
2018-06-22T20:41:34.795Z,100198.75
2018-06-22T20:44:09.099Z,100205.35
2018-06-22T20:46:43.261Z,100199.60
2018-06-22T20:49:17.506Z,100199.60
2018-06-22T20:51:46.607Z,100200.95
2018-06-22T20:54:15.789Z,100200.45
2018-06-22T20:56:44.787Z,100205.84
2018-06-22T20:59:13.854Z,100204.83
2018-06-22T21:01:42.985Z,100206.34
2018-06-22T21:04:11.972Z,100214.42
2018-06-22T21:06:41.075Z,100221.16
2018-06-22T21:09:11.014Z,100219.32
2018-06-22T21:11:40.114Z,100222.51
2018-06-22T21:14:10.122Z,100220.31
2018-06-22T21:16:39.458Z,100219.45
2018-06-22T21:19:08.410Z,100220.31
2018-06-22T21:21:42.500Z,100223.00
2018-06-22T21:24:11.650Z,100226.20
2018-06-22T21:26:40.647Z,100231.09
2018-06-22T21:29:14.857Z,100231.09
2018-06-22T21:31:48.901Z,100231.58
2018-06-22T21:34:23.069Z,100236.16
2018-06-22T21:36:57.616Z,100240.69
2018-06-22T21:39:26.869Z,100236.16
2018-06-22T21:41:55.862Z,100244.23
2018-06-22T21:44:25.003Z,100246.08
2018-06-22T21:46:54.109Z,100252.66
2018-06-22T21:49:23.244Z,100249.95
2018-06-22T21:51:52.345Z,100245.06
2018-06-22T21:54:21.453Z,100247.27
2018-06-22T21:56:50.458Z,100254.00
2018-06-22T21:59:19.490Z,100252.66
2018-06-22T22:01:48.660Z,100253.51
2018-06-22T22:04:17.867Z,100260.24
2018-06-22T22:06:46.790Z,100261.95
2018-06-22T22:09:15.871Z,100263.80
2018-06-22T22:11:50.055Z,100265.47
2018-06-22T22:14:18.873Z,100271.22
2018-06-22T22:16:47.970Z,100261.78
2018-06-22T22:19:17.073Z,100257.25
2018-06-22T22:21:46.234Z,100253.70
2018-06-22T22:24:15.261Z,100250.84
2018-06-22T22:26:44.203Z,100248.50
2018-06-22T22:29:13.239Z,100251.20
2018-06-22T22:31:42.236Z,100258.30
2018-06-22T22:34:11.199Z,100261.84
2018-06-22T22:36:40.207Z,100262.53
2018-06-22T22:39:09.420Z,100261.84
2018-06-22T22:41:38.695Z,100267.92
2018-06-22T22:44:08.551Z,100267.92
2018-06-22T22:46:37.587Z,100274.98
2018-06-22T22:49:06.727Z,100274.17
2018-06-22T22:51:35.695Z,100269.59
2018-06-22T22:54:04.797Z,100272.66
2018-06-22T22:56:33.824Z,100274.36
2018-06-22T22:59:02.810Z,100274.85
2018-06-22T23:01:31.909Z,100278.41
2018-06-22T23:04:00.784Z,100278.41
2018-06-22T23:06:29.804Z,100278.73
2018-06-22T23:08:58.694Z,100280.58
2018-06-22T23:11:27.685Z,100281.42
2018-06-22T23:13:56.546Z,100283.27
2018-06-22T23:16:25.762Z,100286.82
2018-06-22T23:18:54.705Z,100294.41
2018-06-22T23:21:23.712Z,100292.57
2018-06-22T23:23:52.869Z,100298.95
2018-06-22T23:26:21.656Z,100292.20
2018-06-22T23:28:50.751Z,100278.16
2018-06-22T23:31:20.030Z,100286.11
2018-06-22T23:33:49.041Z,100298.09
2018-06-22T23:36:18.150Z,100296.91
2018-06-22T23:38:47.193Z,100304.51
2018-06-22T23:41:16.495Z,100306.34
2018-06-22T23:43:45.385Z,100301.95
2018-06-22T23:46:14.317Z,100309.05
2018-06-22T23:48:43.431Z,100303.30
2018-06-22T23:51:12.563Z,100305.66
2018-06-22T23:53:41.433Z,100305.16
2018-06-22T23:56:10.613Z,100308.36
2018-06-22T23:58:39.641Z,100313.75
